sensor_id;sensor_type;location;lat;lon;timestamp;pressure;altitude;pressure_sealevel;temperature;humidity
10978;BME280;5542;48.272;10.794;2022-12-29T00:01:45;95470.44;;;4.26;69.26
10978;BME280;5542;48.272;10.794;2022-12-29T00:04:13;95476.06;;;4.23;69.09
10978;BME280;5542;48.272;10.794;2022-12-29T00:06:42;95468.88;;;4.38;68.38
10978;BME280;5542;48.272;10.794;2022-12-29T00:09:10;95469.66;;;4.32;68.33
10978;BME280;5542;48.272;10.794;2022-12-29T00:11:38;95471.25;;;4.26;68.71
10978;BME280;5542;48.272;10.794;2022-12-29T00:14:05;95466.81;;;4.20;69.12
10978;BME280;5542;48.272;10.794;2022-12-29T00:16:49;95468.81;;;4.18;69.44
10978;BME280;5542;48.272;10.794;2022-12-29T00:19:16;95473.41;;;4.16;69.48
10978;BME280;5542;48.272;10.794;2022-12-29T00:22:01;95463.63;;;4.25;68.79
10978;BME280;5542;48.272;10.794;2022-12-29T00:24:45;95467.56;;;4.07;69.21
10978;BME280;5542;48.272;10.794;2022-12-29T00:27:30;95470.16;;;4.07;69.19
10978;BME280;5542;48.272;10.794;2022-12-29T00:30:16;95476.38;;;4.06;69.21
10978;BME280;5542;48.272;10.794;2022-12-29T00:33:01;95472.59;;;4.16;68.78
10978;BME280;5542;48.272;10.794;2022-12-29T00:35:53;95467.59;;;4.14;69.00
10978;BME280;5542;48.272;10.794;2022-12-29T00:38:23;95467.97;;;4.11;69.24
10978;BME280;5542;48.272;10.794;2022-12-29T00:41:07;95464.94;;;4.01;69.49
10978;BME280;5542;48.272;10.794;2022-12-29T00:43:51;95462.53;;;3.99;69.53
10978;BME280;5542;48.272;10.794;2022-12-29T00:46:36;95455.75;;;4.05;68.85
10978;BME280;5542;48.272;10.794;2022-12-29T00:49:03;95463.91;;;3.95;69.50
10978;BME280;5542;48.272;10.794;2022-12-29T00:51:48;95465.09;;;3.93;69.64
10978;BME280;5542;48.272;10.794;2022-12-29T00:54:17;95463.56;;;4.05;69.08
10978;BME280;5542;48.272;10.794;2022-12-29T00:56:45;95460.97;;;4.05;68.96
10978;BME280;5542;48.272;10.794;2022-12-29T00:59:12;95462.97;;;4.09;67.87
10978;BME280;5542;48.272;10.794;2022-12-29T01:01:39;95460.19;;;4.18;67.64
10978;BME280;5542;48.272;10.794;2022-12-29T01:04:06;95461.53;;;4.00;68.52
10978;BME280;5542;48.272;10.794;2022-12-29T01:06:33;95472.97;;;4.06;68.43
10978;BME280;5542;48.272;10.794;2022-12-29T01:09:01;95472.53;;;3.96;69.05
10978;BME280;5542;48.272;10.794;2022-12-29T01:11:47;95464.13;;;4.00;68.92
10978;BME280;5542;48.272;10.794;2022-12-29T01:14:14;95464.09;;;3.94;69.25
10978;BME280;5542;48.272;10.794;2022-12-29T01:16:41;95463.56;;;4.05;69.02
10978;BME280;5542;48.272;10.794;2022-12-29T01:19:08;95470.97;;;4.08;68.65
10978;BME280;5542;48.272;10.794;2022-12-29T01:21:34;95472.38;;;4.04;68.23
10978;BME280;5542;48.272;10.794;2022-12-29T01:24:01;95476.88;;;3.89;69.36
10978;BME280;5542;48.272;10.794;2022-12-29T01:26:28;95473.09;;;3.91;68.94
10978;BME280;5542;48.272;10.794;2022-12-29T01:28:55;95479.09;;;3.85;69.24
10978;BME280;5542;48.272;10.794;2022-12-29T01:31:22;95483.09;;;3.88;69.22
10978;BME280;5542;48.272;10.794;2022-12-29T01:33:49;95478.09;;;3.86;69.65
10978;BME280;5542;48.272;10.794;2022-12-29T01:36:16;95478.66;;;3.81;70.00
10978;BME280;5542;48.272;10.794;2022-12-29T01:38:44;95474.63;;;3.79;69.99
10978;BME280;5542;48.272;10.794;2022-12-29T01:41:12;95475.06;;;3.82;69.95
10978;BME280;5542;48.272;10.794;2022-12-29T01:43:42;95475.50;;;3.93;69.87
10978;BME280;5542;48.272;10.794;2022-12-29T01:46:18;95469.28;;;3.87;70.07
10978;BME280;5542;48.272;10.794;2022-12-29T01:48:46;95470.22;;;3.79;70.53
10978;BME280;5542;48.272;10.794;2022-12-29T01:51:16;95474.09;;;3.90;69.91
10978;BME280;5542;48.272;10.794;2022-12-29T01:53:44;95472.44;;;3.82;70.12
10978;BME280;5542;48.272;10.794;2022-12-29T01:56:14;95472.31;;;3.97;69.47
10978;BME280;5542;48.272;10.794;2022-12-29T01:58:45;95462.91;;;3.96;69.27
10978;BME280;5542;48.272;10.794;2022-12-29T02:01:15;95463.13;;;4.01;68.73
10978;BME280;5542;48.272;10.794;2022-12-29T02:03:43;95457.94;;;4.08;68.56
10978;BME280;5542;48.272;10.794;2022-12-29T02:06:12;95454.75;;;4.13;68.21
10978;BME280;5542;48.272;10.794;2022-12-29T02:08:41;95458.78;;;4.08;68.26
10978;BME280;5542;48.272;10.794;2022-12-29T02:11:09;95458.50;;;3.97;68.63
10978;BME280;5542;48.272;10.794;2022-12-29T02:13:36;95446.94;;;4.06;68.40
10978;BME280;5542;48.272;10.794;2022-12-29T02:16:12;95435.75;;;4.12;68.14
10978;BME280;5542;48.272;10.794;2022-12-29T02:18:48;95431.34;;;4.13;68.03
10978;BME280;5542;48.272;10.794;2022-12-29T02:21:40;95420.50;;;4.02;68.50
10978;BME280;5542;48.272;10.794;2022-12-29T02:24:36;95433.13;;;3.99;68.71
10978;BME280;5542;48.272;10.794;2022-12-29T02:27:36;95430.72;;;4.04;68.43
10978;BME280;5542;48.272;10.794;2022-12-29T02:33:21;95433.19;;;4.19;67.81
10978;BME280;5542;48.272;10.794;2022-12-29T02:35:58;95424.38;;;4.13;67.81
10978;BME280;5542;48.272;10.794;2022-12-29T02:38:38;95422.53;;;4.07;68.36
10978;BME280;5542;48.272;10.794;2022-12-29T02:41:10;95424.13;;;4.08;68.28
10978;BME280;5542;48.272;10.794;2022-12-29T02:43:48;95415.13;;;4.04;68.03
10978;BME280;5542;48.272;10.794;2022-12-29T02:46:19;95419.16;;;4.20;67.74
10978;BME280;5542;48.272;10.794;2022-12-29T02:48:54;95412.53;;;4.17;67.77
10978;BME280;5542;48.272;10.794;2022-12-29T02:51:27;95407.13;;;4.12;68.10
10978;BME280;5542;48.272;10.794;2022-12-29T02:53:56;95406.16;;;4.20;67.94
10978;BME280;5542;48.272;10.794;2022-12-29T02:56:41;95412.00;;;4.28;67.66
10978;BME280;5542;48.272;10.794;2022-12-29T02:59:08;95408.56;;;4.21;67.64
10978;BME280;5542;48.272;10.794;2022-12-29T03:01:48;95399.34;;;4.25;67.74
10978;BME280;5542;48.272;10.794;2022-12-29T03:04:40;95404.56;;;4.32;67.47
10978;BME280;5542;48.272;10.794;2022-12-29T03:07:16;95402.75;;;4.19;68.02
10978;BME280;5542;48.272;10.794;2022-12-29T03:09:50;95409.94;;;4.10;68.29
10978;BME280;5542;48.272;10.794;2022-12-29T03:12:25;95408.75;;;4.20;67.93
10978;BME280;5542;48.272;10.794;2022-12-29T03:15:16;95403.97;;;4.36;67.14
10978;BME280;5542;48.272;10.794;2022-12-29T03:18:04;95405.59;;;4.38;66.74
10978;BME280;5542;48.272;10.794;2022-12-29T03:20:38;95399.59;;;4.44;66.29
10978;BME280;5542;48.272;10.794;2022-12-29T03:23:06;95392.59;;;4.44;65.91
10978;BME280;5542;48.272;10.794;2022-12-29T03:25:35;95391.78;;;4.44;65.85
10978;BME280;5542;48.272;10.794;2022-12-29T03:28:06;95388.78;;;4.53;65.50
10978;BME280;5542;48.272;10.794;2022-12-29T03:30:35;95380.38;;;4.51;65.71
10978;BME280;5542;48.272;10.794;2022-12-29T03:33:06;95380.59;;;4.63;65.49
10978;BME280;5542;48.272;10.794;2022-12-29T03:35:37;95375.19;;;4.58;65.60
10978;BME280;5542;48.272;10.794;2022-12-29T03:38:09;95375.16;;;4.65;65.64
10978;BME280;5542;48.272;10.794;2022-12-29T03:40:38;95375.78;;;4.67;65.66
10978;BME280;5542;48.272;10.794;2022-12-29T03:43:06;95369.59;;;4.61;66.04
10978;BME280;5542;48.272;10.794;2022-12-29T03:45:33;95380.59;;;4.63;66.18
10978;BME280;5542;48.272;10.794;2022-12-29T03:47:59;95371.97;;;4.69;66.37
10978;BME280;5542;48.272;10.794;2022-12-29T03:50:26;95368.16;;;4.65;66.77
10978;BME280;5542;48.272;10.794;2022-12-29T03:52:54;95364.38;;;4.61;66.91
10978;BME280;5542;48.272;10.794;2022-12-29T03:55:20;95374.59;;;4.62;66.38
10978;BME280;5542;48.272;10.794;2022-12-29T03:57:47;95370.78;;;4.58;67.75
10978;BME280;5542;48.272;10.794;2022-12-29T04:00:14;95363.16;;;4.57;67.54
10978;BME280;5542;48.272;10.794;2022-12-29T04:02:41;95363.97;;;4.57;67.87
10978;BME280;5542;48.272;10.794;2022-12-29T04:05:08;95360.34;;;4.58;67.65
10978;BME280;5542;48.272;10.794;2022-12-29T04:07:34;95363.56;;;4.67;67.25
10978;BME280;5542;48.272;10.794;2022-12-29T04:10:03;95363.19;;;4.70;66.99
10978;BME280;5542;48.272;10.794;2022-12-29T04:12:30;95364.78;;;4.71;66.76
10978;BME280;5542;48.272;10.794;2022-12-29T04:14:56;95359.56;;;4.84;66.49
10978;BME280;5542;48.272;10.794;2022-12-29T04:17:23;95356.34;;;4.82;66.53
10978;BME280;5542;48.272;10.794;2022-12-29T04:19:50;95360.94;;;4.87;66.29
10978;BME280;5542;48.272;10.794;2022-12-29T04:22:16;95364.97;;;4.90;66.08
10978;BME280;5542;48.272;10.794;2022-12-29T04:24:43;95364.75;;;4.91;66.21
10978;BME280;5542;48.272;10.794;2022-12-29T04:27:11;95369.19;;;4.91;66.91
10978;BME280;5542;48.272;10.794;2022-12-29T04:29:37;95368.75;;;4.94;66.86
10978;BME280;5542;48.272;10.794;2022-12-29T04:32:04;95370.56;;;4.93;67.10
10978;BME280;5542;48.272;10.794;2022-12-29T04:34:30;95368.75;;;4.94;67.43
10978;BME280;5542;48.272;10.794;2022-12-29T04:36:57;95372.56;;;4.98;67.20
10978;BME280;5542;48.272;10.794;2022-12-29T04:39:23;95377.38;;;5.01;67.58
10978;BME280;5542;48.272;10.794;2022-12-29T04:41:50;95379.78;;;5.02;67.52
10978;BME280;5542;48.272;10.794;2022-12-29T04:44:18;95376.75;;;5.12;65.82
10978;BME280;5542;48.272;10.794;2022-12-29T04:46:44;95381.97;;;5.12;65.83
10978;BME280;5542;48.272;10.794;2022-12-29T04:49:11;95377.19;;;5.09;66.19
10978;BME280;5542;48.272;10.794;2022-12-29T04:51:38;95373.19;;;5.13;66.00
10978;BME280;5542;48.272;10.794;2022-12-29T04:54:04;95363.16;;;5.10;66.06
10978;BME280;5542;48.272;10.794;2022-12-29T04:56:31;95370.75;;;5.11;66.29
10978;BME280;5542;48.272;10.794;2022-12-29T04:58:57;95368.75;;;5.07;66.60
10978;BME280;5542;48.272;10.794;2022-12-29T05:01:25;95366.75;;;5.02;67.04
10978;BME280;5542;48.272;10.794;2022-12-29T05:03:52;95370.75;;;4.98;67.31
10978;BME280;5542;48.272;10.794;2022-12-29T05:06:18;95374.38;;;4.97;67.88
10978;BME280;5542;48.272;10.794;2022-12-29T05:08:45;95369.59;;;4.94;67.85
10978;BME280;5542;48.272;10.794;2022-12-29T05:11:12;95370.75;;;4.98;67.73
10978;BME280;5542;48.272;10.794;2022-12-29T05:13:38;95369.56;;;5.01;67.03
10978;BME280;5542;48.272;10.794;2022-12-29T05:16:05;95365.94;;;5.02;67.03
10978;BME280;5542;48.272;10.794;2022-12-29T05:18:33;95359.91;;;5.08;66.21
10978;BME280;5542;48.272;10.794;2022-12-29T05:21:00;95358.50;;;5.32;62.18
10978;BME280;5542;48.272;10.794;2022-12-29T05:23:26;95352.81;;;5.55;59.83
10978;BME280;5542;48.272;10.794;2022-12-29T05:25:53;95350.16;;;5.68;58.96
10978;BME280;5542;48.272;10.794;2022-12-29T05:28:20;95346.66;;;5.87;57.75
10978;BME280;5542;48.272;10.794;2022-12-29T05:30:48;95342.91;;;6.22;57.04
10978;BME280;5542;48.272;10.794;2022-12-29T05:33:14;95349.63;;;6.36;55.25
10978;BME280;5542;48.272;10.794;2022-12-29T05:35:42;95339.59;;;6.64;53.50
10978;BME280;5542;48.272;10.794;2022-12-29T05:38:09;95338.59;;;6.90;52.04
10978;BME280;5542;48.272;10.794;2022-12-29T05:40:36;95341.53;;;7.01;52.45
10978;BME280;5542;48.272;10.794;2022-12-29T05:43:02;95347.50;;;7.08;51.88
10978;BME280;5542;48.272;10.794;2022-12-29T05:45:29;95331.16;;;7.12;51.81
10978;BME280;5542;48.272;10.794;2022-12-29T05:47:56;95340.53;;;7.20;52.03
10978;BME280;5542;48.272;10.794;2022-12-29T05:50:22;95339.19;;;7.36;52.07
10978;BME280;5542;48.272;10.794;2022-12-29T05:52:50;95324.06;;;7.38;51.40
10978;BME280;5542;48.272;10.794;2022-12-29T05:55:17;95327.75;;;7.30;52.56
10978;BME280;5542;48.272;10.794;2022-12-29T05:57:44;95338.16;;;7.37;52.24
10978;BME280;5542;48.272;10.794;2022-12-29T06:00:11;95343.75;;;7.40;52.48
10978;BME280;5542;48.272;10.794;2022-12-29T06:02:38;95338.44;;;7.47;52.31
10978;BME280;5542;48.272;10.794;2022-12-29T06:05:05;95342.91;;;7.47;51.96
10978;BME280;5542;48.272;10.794;2022-12-29T06:07:32;95341.94;;;7.59;52.39
10978;BME280;5542;48.272;10.794;2022-12-29T06:09:59;95353.56;;;7.63;51.70
10978;BME280;5542;48.272;10.794;2022-12-29T06:12:26;95343.69;;;7.65;52.56
10978;BME280;5542;48.272;10.794;2022-12-29T06:14:53;95344.91;;;7.63;52.86
10978;BME280;5542;48.272;10.794;2022-12-29T06:17:19;95355.66;;;7.73;52.81
10978;BME280;5542;48.272;10.794;2022-12-29T06:19:46;95350.75;;;7.65;53.28
10978;BME280;5542;48.272;10.794;2022-12-29T06:22:12;95343.88;;;7.82;53.06
10978;BME280;5542;48.272;10.794;2022-12-29T06:24:39;95339.66;;;7.81;53.31
10978;BME280;5542;48.272;10.794;2022-12-29T06:27:07;95349.25;;;7.87;53.88
10978;BME280;5542;48.272;10.794;2022-12-29T06:29:33;95347.91;;;7.85;53.73
10978;BME280;5542;48.272;10.794;2022-12-29T06:32:02;95362.28;;;7.76;54.46
10978;BME280;5542;48.272;10.794;2022-12-29T06:34:29;95351.31;;;7.85;53.92
10978;BME280;5542;48.272;10.794;2022-12-29T06:36:55;95359.88;;;7.92;53.49
10978;BME280;5542;48.272;10.794;2022-12-29T06:39:22;95369.13;;;7.77;53.93
10978;BME280;5542;48.272;10.794;2022-12-29T06:41:51;95370.94;;;7.58;54.50
10978;BME280;5542;48.272;10.794;2022-12-29T06:44:19;95369.72;;;7.79;53.45
10978;BME280;5542;48.272;10.794;2022-12-29T06:46:46;95373.13;;;7.79;54.01
10978;BME280;5542;48.272;10.794;2022-12-29T06:49:13;95375.00;;;7.72;54.43
10978;BME280;5542;48.272;10.794;2022-12-29T06:51:40;95376.75;;;7.78;53.82
10978;BME280;5542;48.272;10.794;2022-12-29T06:54:06;95367.53;;;7.94;53.24
10978;BME280;5542;48.272;10.794;2022-12-29T06:56:33;95368.56;;;7.93;53.32
10978;BME280;5542;48.272;10.794;2022-12-29T06:59:00;95366.94;;;7.92;53.57
10978;BME280;5542;48.272;10.794;2022-12-29T07:01:27;95370.53;;;7.79;53.90
10978;BME280;5542;48.272;10.794;2022-12-29T07:03:54;95373.97;;;7.91;53.22
10978;BME280;5542;48.272;10.794;2022-12-29T07:06:21;95380.34;;;7.84;53.48
10978;BME280;5542;48.272;10.794;2022-12-29T07:08:47;95390.72;;;7.90;53.21
10978;BME280;5542;48.272;10.794;2022-12-29T07:11:14;95380.25;;;7.90;53.05
10978;BME280;5542;48.272;10.794;2022-12-29T07:13:40;95382.50;;;7.87;53.33
10978;BME280;5542;48.272;10.794;2022-12-29T07:16:08;95377.41;;;7.92;53.41
10978;BME280;5542;48.272;10.794;2022-12-29T07:18:36;95379.34;;;7.96;53.21
10978;BME280;5542;48.272;10.794;2022-12-29T07:21:03;95364.25;;;7.99;53.28
10978;BME280;5542;48.272;10.794;2022-12-29T07:23:30;95364.69;;;7.95;53.82
10978;BME280;5542;48.272;10.794;2022-12-29T07:26:00;95372.44;;;8.02;53.39
10978;BME280;5542;48.272;10.794;2022-12-29T07:28:27;95389.66;;;7.80;54.77
10978;BME280;5542;48.272;10.794;2022-12-29T07:30:54;95386.94;;;8.05;53.58
10978;BME280;5542;48.272;10.794;2022-12-29T07:33:20;95383.16;;;8.01;53.75
10978;BME280;5542;48.272;10.794;2022-12-29T07:35:48;95381.31;;;8.01;53.67
10978;BME280;5542;48.272;10.794;2022-12-29T07:38:15;95386.31;;;8.21;52.44
10978;BME280;5542;48.272;10.794;2022-12-29T07:40:42;95380.94;;;8.16;53.06
10978;BME280;5542;48.272;10.794;2022-12-29T07:43:08;95379.59;;;8.25;52.65
10978;BME280;5542;48.272;10.794;2022-12-29T07:45:35;95363.19;;;8.18;52.75
10978;BME280;5542;48.272;10.794;2022-12-29T07:48:01;95372.69;;;8.31;52.31
10978;BME280;5542;48.272;10.794;2022-12-29T07:50:28;95378.13;;;8.17;52.86
10978;BME280;5542;48.272;10.794;2022-12-29T07:52:56;95376.19;;;8.25;52.97
10978;BME280;5542;48.272;10.794;2022-12-29T07:55:23;95376.69;;;8.33;52.76
10978;BME280;5542;48.272;10.794;2022-12-29T07:57:49;95385.06;;;8.42;52.40
10978;BME280;5542;48.272;10.794;2022-12-29T08:00:16;95379.59;;;8.43;52.95
10978;BME280;5542;48.272;10.794;2022-12-29T08:02:42;95370.16;;;8.54;52.10
10978;BME280;5542;48.272;10.794;2022-12-29T08:05:09;95372.78;;;8.54;52.44
10978;BME280;5542;48.272;10.794;2022-12-29T08:07:36;95380.88;;;8.53;53.43
10978;BME280;5542;48.272;10.794;2022-12-29T08:10:05;95375.91;;;8.63;52.78
10978;BME280;5542;48.272;10.794;2022-12-29T08:12:31;95380.38;;;8.74;52.57
10978;BME280;5542;48.272;10.794;2022-12-29T08:14:58;95387.31;;;8.68;52.76
10978;BME280;5542;48.272;10.794;2022-12-29T08:17:24;95386.75;;;8.78;53.41
10978;BME280;5542;48.272;10.794;2022-12-29T08:19:51;95381.97;;;8.87;53.00
10978;BME280;5542;48.272;10.794;2022-12-29T08:22:17;95393.28;;;8.87;53.10
10978;BME280;5542;48.272;10.794;2022-12-29T08:24:44;95396.25;;;8.79;53.51
10978;BME280;5542;48.272;10.794;2022-12-29T08:27:12;95389.16;;;8.80;53.35
10978;BME280;5542;48.272;10.794;2022-12-29T08:29:38;95384.53;;;8.93;53.39
10978;BME280;5542;48.272;10.794;2022-12-29T08:32:05;95384.84;;;8.97;53.57
10978;BME280;5542;48.272;10.794;2022-12-29T08:34:32;95391.97;;;9.08;53.22
10978;BME280;5542;48.272;10.794;2022-12-29T08:36:59;95387.75;;;9.07;53.41
10978;BME280;5542;48.272;10.794;2022-12-29T08:39:25;95388.78;;;9.18;53.35
10978;BME280;5542;48.272;10.794;2022-12-29T08:41:52;95395.16;;;9.22;53.90
10978;BME280;5542;48.272;10.794;2022-12-29T08:44:20;95395.72;;;9.24;53.78
10978;BME280;5542;48.272;10.794;2022-12-29T08:46:47;95392.53;;;9.45;53.83
10978;BME280;5542;48.272;10.794;2022-12-29T08:49:14;95398.34;;;9.83;52.29
10978;BME280;5542;48.272;10.794;2022-12-29T08:51:40;95401.06;;;9.76;53.40
10978;BME280;5542;48.272;10.794;2022-12-29T08:54:07;95393.53;;;9.80;52.82
10978;BME280;5542;48.272;10.794;2022-12-29T08:56:34;95402.06;;;9.87;52.67
10978;BME280;5542;48.272;10.794;2022-12-29T08:59:00;95399.09;;;10.07;51.01
10978;BME280;5542;48.272;10.794;2022-12-29T09:01:28;95400.47;;;9.97;51.54
10978;BME280;5542;48.272;10.794;2022-12-29T09:03:55;95403.66;;;9.99;51.36
10978;BME280;5542;48.272;10.794;2022-12-29T09:06:22;95401.16;;;9.93;50.93
10978;BME280;5542;48.272;10.794;2022-12-29T09:08:48;95404.84;;;9.80;52.05
10978;BME280;5542;48.272;10.794;2022-12-29T09:11:17;95408.72;;;9.66;51.97
10978;BME280;5542;48.272;10.794;2022-12-29T09:13:44;95411.91;;;9.68;51.85
10978;BME280;5542;48.272;10.794;2022-12-29T09:16:11;95416.38;;;9.67;51.54
10978;BME280;5542;48.272;10.794;2022-12-29T09:18:40;95422.88;;;9.53;52.39
10978;BME280;5542;48.272;10.794;2022-12-29T09:21:07;95406.91;;;9.66;51.78
10978;BME280;5542;48.272;10.794;2022-12-29T09:23:34;95411.94;;;9.56;51.89
10978;BME280;5542;48.272;10.794;2022-12-29T09:26:01;95423.69;;;9.42;51.85
10978;BME280;5542;48.272;10.794;2022-12-29T09:28:27;95428.69;;;9.43;51.57
10978;BME280;5542;48.272;10.794;2022-12-29T09:30:54;95426.78;;;9.51;51.92
10978;BME280;5542;48.272;10.794;2022-12-29T09:33:21;95427.00;;;9.49;52.33
10978;BME280;5542;48.272;10.794;2022-12-29T09:35:52;95438.06;;;9.63;50.55
10978;BME280;5542;48.272;10.794;2022-12-29T09:38:19;95432.16;;;9.56;51.43
10978;BME280;5542;48.272;10.794;2022-12-29T09:40:50;95430.66;;;9.48;52.06
10978;BME280;5542;48.272;10.794;2022-12-29T09:43:31;95428.38;;;9.52;51.38
10978;BME280;5542;48.272;10.794;2022-12-29T09:46:10;95421.66;;;9.56;51.28
10978;BME280;5542;48.272;10.794;2022-12-29T09:48:41;95421.41;;;9.57;51.28
10978;BME280;5542;48.272;10.794;2022-12-29T09:51:15;95421.16;;;9.59;51.00
10978;BME280;5542;48.272;10.794;2022-12-29T09:53:44;95422.53;;;9.61;51.27
10978;BME280;5542;48.272;10.794;2022-12-29T09:56:16;95412.25;;;9.83;50.32
10978;BME280;5542;48.272;10.794;2022-12-29T09:58:49;95413.59;;;9.97;49.57
10978;BME280;5542;48.272;10.794;2022-12-29T10:01:28;95422.25;;;10.10;49.33
10978;BME280;5542;48.272;10.794;2022-12-29T10:03:57;95417.25;;;10.08;48.89
10978;BME280;5542;48.272;10.794;2022-12-29T10:06:31;95421.94;;;9.94;50.01
10978;BME280;5542;48.272;10.794;2022-12-29T10:09:08;95421.56;;;10.14;48.70
10978;BME280;5542;48.272;10.794;2022-12-29T10:11:55;95419.38;;;10.23;48.36
10978;BME280;5542;48.272;10.794;2022-12-29T10:14:36;95413.78;;;10.19;48.71
10978;BME280;5542;48.272;10.794;2022-12-29T10:17:17;95408.53;;;10.31;47.98
10978;BME280;5542;48.272;10.794;2022-12-29T10:20:22;95405.66;;;10.33;47.93
10978;BME280;5542;48.272;10.794;2022-12-29T10:23:13;95407.47;;;10.32;48.04
10978;BME280;5542;48.272;10.794;2022-12-29T10:25:45;95402.88;;;10.39;47.45
10978;BME280;5542;48.272;10.794;2022-12-29T10:28:19;95406.19;;;10.35;48.14
10978;BME280;5542;48.272;10.794;2022-12-29T10:30:47;95402.88;;;10.39;47.93
10978;BME280;5542;48.272;10.794;2022-12-29T10:33:17;95403.25;;;10.19;48.42
10978;BME280;5542;48.272;10.794;2022-12-29T10:35:46;95414.09;;;10.35;48.65
10978;BME280;5542;48.272;10.794;2022-12-29T10:38:22;95409.88;;;10.22;48.85
10978;BME280;5542;48.272;10.794;2022-12-29T10:40:54;95411.59;;;10.28;48.96
10978;BME280;5542;48.272;10.794;2022-12-29T10:43:25;95405.50;;;10.39;48.33
10978;BME280;5542;48.272;10.794;2022-12-29T10:45:53;95378.47;;;10.27;49.25
10978;BME280;5542;48.272;10.794;2022-12-29T10:48:22;95374.47;;;10.24;48.92
10978;BME280;5542;48.272;10.794;2022-12-29T10:50:53;95375.34;;;10.30;47.86
10978;BME280;5542;48.272;10.794;2022-12-29T10:53:30;95374.28;;;10.43;47.34
10978;BME280;5542;48.272;10.794;2022-12-29T10:55:59;95375.31;;;10.42;47.65
10978;BME280;5542;48.272;10.794;2022-12-29T10:58:28;95377.25;;;10.46;46.96
10978;BME280;5542;48.272;10.794;2022-12-29T11:00:56;95368.59;;;10.63;46.61
10978;BME280;5542;48.272;10.794;2022-12-29T11:03:40;95370.22;;;10.64;47.14
10978;BME280;5542;48.272;10.794;2022-12-29T11:06:15;95363.44;;;10.85;45.94
10978;BME280;5542;48.272;10.794;2022-12-29T11:08:51;95349.97;;;10.81;45.42
10978;BME280;5542;48.272;10.794;2022-12-29T11:11:23;95349.34;;;10.74;45.42
10978;BME280;5542;48.272;10.794;2022-12-29T11:13:56;95344.91;;;10.63;45.82
10978;BME280;5542;48.272;10.794;2022-12-29T11:16:31;95343.09;;;10.63;45.61
10978;BME280;5542;48.272;10.794;2022-12-29T11:18:59;95343.13;;;10.80;45.74
10978;BME280;5542;48.272;10.794;2022-12-29T11:21:31;95328.69;;;10.99;44.69
10978;BME280;5542;48.272;10.794;2022-12-29T11:24:01;95326.91;;;11.05;45.15
10978;BME280;5542;48.272;10.794;2022-12-29T11:26:28;95328.44;;;11.01;45.82
10978;BME280;5542;48.272;10.794;2022-12-29T11:29:16;95331.97;;;11.07;46.39
10978;BME280;5542;48.272;10.794;2022-12-29T11:31:45;95328.97;;;11.20;46.10
10978;BME280;5542;48.272;10.794;2022-12-29T11:34:18;95344.28;;;11.23;47.28
10978;BME280;5542;48.272;10.794;2022-12-29T11:36:45;95322.75;;;11.26;45.96
10978;BME280;5542;48.272;10.794;2022-12-29T11:39:34;95324.03;;;11.23;46.35
10978;BME280;5542;48.272;10.794;2022-12-29T11:42:03;95323.63;;;11.32;46.60
10978;BME280;5542;48.272;10.794;2022-12-29T11:44:37;95340.75;;;11.51;46.12
10978;BME280;5542;48.272;10.794;2022-12-29T11:47:11;95317.84;;;11.51;45.43
10978;BME280;5542;48.272;10.794;2022-12-29T11:49:39;95316.91;;;11.41;46.04
10978;BME280;5542;48.272;10.794;2022-12-29T11:52:06;95318.56;;;11.47;45.14
10978;BME280;5542;48.272;10.794;2022-12-29T11:54:37;95331.13;;;11.40;46.26
10978;BME280;5542;48.272;10.794;2022-12-29T11:57:12;95335.06;;;11.59;45.13
10978;BME280;5542;48.272;10.794;2022-12-29T11:59:43;95322.69;;;11.60;45.46
10978;BME280;5542;48.272;10.794;2022-12-29T12:02:32;95333.22;;;11.60;45.14
10978;BME280;5542;48.272;10.794;2022-12-29T12:05:08;95332.06;;;11.72;45.35
10978;BME280;5542;48.272;10.794;2022-12-29T12:07:40;95326.72;;;11.67;45.16
10978;BME280;5542;48.272;10.794;2022-12-29T12:10:16;95335.59;;;11.61;44.76
10978;BME280;5542;48.272;10.794;2022-12-29T12:12:48;95333.16;;;11.54;45.07
10978;BME280;5542;48.272;10.794;2022-12-29T12:15:22;95325.72;;;11.51;45.61
10978;BME280;5542;48.272;10.794;2022-12-29T12:17:53;95329.72;;;11.54;45.58
10978;BME280;5542;48.272;10.794;2022-12-29T12:20:26;95320.00;;;11.54;44.99
10978;BME280;5542;48.272;10.794;2022-12-29T12:23:01;95327.31;;;11.52;45.98
10978;BME280;5542;48.272;10.794;2022-12-29T12:25:38;95319.75;;;11.56;45.54
10978;BME280;5542;48.272;10.794;2022-12-29T12:28:11;95327.31;;;11.52;46.29
10978;BME280;5542;48.272;10.794;2022-12-29T12:30:43;95318.63;;;11.52;45.92
10978;BME280;5542;48.272;10.794;2022-12-29T12:33:16;95319.69;;;11.51;46.67
10978;BME280;5542;48.272;10.794;2022-12-29T12:35:53;95315.75;;;11.53;46.66
10978;BME280;5542;48.272;10.794;2022-12-29T12:38:30;95310.41;;;11.48;46.33
10978;BME280;5542;48.272;10.794;2022-12-29T12:41:07;95309.88;;;11.46;46.57
10978;BME280;5542;48.272;10.794;2022-12-29T12:43:44;95308.47;;;11.61;47.04
10978;BME280;5542;48.272;10.794;2022-12-29T12:49:26;95300.50;;;11.56;47.16
10978;BME280;5542;48.272;10.794;2022-12-29T12:52:06;95306.44;;;11.46;48.15
10978;BME280;5542;48.272;10.794;2022-12-29T12:54:48;95301.13;;;11.63;47.79
10978;BME280;5542;48.272;10.794;2022-12-29T12:57:30;95293.94;;;11.58;48.16
10978;BME280;5542;48.272;10.794;2022-12-29T13:00:03;95301.25;;;11.51;49.26
10978;BME280;5542;48.272;10.794;2022-12-29T13:02:41;95311.53;;;11.52;49.41
10978;BME280;5542;48.272;10.794;2022-12-29T13:05:44;95311.59;;;11.58;49.78
10978;BME280;5542;48.272;10.794;2022-12-29T13:08:38;95316.50;;;11.71;49.96
10978;BME280;5542;48.272;10.794;2022-12-29T13:11:14;95316.72;;;11.47;50.97
10978;BME280;5542;48.272;10.794;2022-12-29T13:13:58;95308.94;;;11.58;51.18
10978;BME280;5542;48.272;10.794;2022-12-29T13:16:34;95310.69;;;11.69;51.04
10978;BME280;5542;48.272;10.794;2022-12-29T13:19:08;95301.63;;;11.60;50.77
10978;BME280;5542;48.272;10.794;2022-12-29T13:21:52;95305.47;;;11.52;50.86
10978;BME280;5542;48.272;10.794;2022-12-29T13:24:27;95300.31;;;11.40;51.36
10978;BME280;5542;48.272;10.794;2022-12-29T13:27:00;95311.72;;;11.46;51.51
10978;BME280;5542;48.272;10.794;2022-12-29T13:29:34;95306.91;;;11.43;51.44
10978;BME280;5542;48.272;10.794;2022-12-29T13:32:14;95309.75;;;11.36;52.22
10978;BME280;5542;48.272;10.794;2022-12-29T13:34:53;95319.28;;;11.42;52.16